MAPA DE AEROPUERTO

INFORMACIÓN METAR y TAF

METAR FOR LECO
ADDS - METARS form results

(1157 UTC 11 April 2021)
Data provider http://aviationweather.gov/metar/data/
 
METAR text: LECO 111130Z 03009KT 340V090 9999 SCT045 12/03 Q1021 NOSIG
Conditions at: LECO (LA CORUNA/ALVEDR, ES) observed 1130 UTC 11 April 2021
Temperature: 12.0°C (54°F)
Dewpoint: 3.0°C (37°F) [RH = 54%]
Pressure (altimeter): 30.15 inches Hg (1021.0 mb)
Winds: from the NNE (30 degrees) at 10 MPH (9 knots; 4.6 m/s)
Visibility: 6 or more miles (10+ km)
Ceiling: at least 12,000 feet AGL
Clouds: scattered clouds at 4500 feet AGL
Weather: no significant weather observed at this time

METAR text: LECO 111100Z 03010KT 350V090 9999 SCT045 12/04 Q1021 NOSIG
Conditions at: LECO (LA CORUNA/ALVEDR, ES) observed 1100 UTC 11 April 2021
Temperature: 12.0°C (54°F)
Dewpoint: 4.0°C (39°F) [RH = 58%]
Pressure (altimeter): 30.15 inches Hg (1021.0 mb)
Winds: from the NNE (30 degrees) at 12 MPH (10 knots; 5.1 m/s)
Visibility: 6 or more miles (10+ km)
Ceiling: at least 12,000 feet AGL
Clouds: scattered clouds at 4500 feet AGL
Weather: no significant weather observed at this time

Forecast for: LECO (LA CORUNA/ALVEDR, ES)
Text: TAF LECO 110800Z 1109/1209 03008KT 9999 SCT040 TX12/1114Z TN03/1206Z
Forecast period: 0900 UTC 11 April 2021 to 0900 UTC 12 April 2021
Forecast type: FROM: standard forecast or significant change
Winds: from the NNE (30 degrees) at 9 MPH (8 knots; 4.1 m/s)
Visibility: 6 or more miles (10+ km)
Ceiling: at least 12,000 feet AGL
Clouds: scattered clouds at 4000 feet AGL
Weather: no significant weather forecast for this period
Text: PROB40
Forecast period: 0900 to 2000 UTC 11 April 2021
Forecast type: TEMPORARY: The following changes expected for less than half the time period
Winds: from the NNE (30 degrees) at 17 MPH (15 knots; 7.7 m/s)
gusting to 29 MPH (25 knots; 12.9 m/s)
Visibility: missing
Ceiling: unknown
Clouds: missing
Weather: no significant weather forecast for this period